Time;durP1;ratioP1;P1;durP2;ratioP2;P2;SDS_P1;SDS_P2;PMS_P1;PMS_P2;Temp;Humidity;BMP_temperature;BMP_pressure;BME280_temperature;BME280_humidity;BME280_pressure;Samples;Min_cycle;Max_cycle;Signal;HPM_P1;HPM_P2
2021/05/30 06:49:14;;;;;;;;;7.00;6.00;;;;;14.34;68.10;99873.47;3607287;39;17450;-56
2021/05/30 06:51:41;;;;;;;;;5.50;5.50;;;;;15.34;63.91;99878.44;3609316;39;14079;-58
2021/05/30 06:54:09;;;;;;;;;4.00;4.00;;;;;14.77;65.35;99881.09;3605700;39;13936;-56
2021/05/30 06:56:37;;;;;;;;;4.75;4.00;;;;;15.22;62.62;99881.22;3605956;39;14031;-58
2021/05/30 06:59:05;;;;;;;;;4.00;4.00;;;;;14.76;63.43;99873.97;3612310;39;14289;-58
2021/05/30 07:01:32;;;;;;;;;6.00;6.00;;;;;15.73;60.94;99878.16;3603536;39;13993;-59
2021/05/30 07:04:00;;;;;;;;;4.50;4.50;;;;;15.57;62.44;99886.59;3610863;39;13966;-59
2021/05/30 07:06:27;;;;;;;;;3.75;3.75;;;;;15.80;62.06;99884.81;3606655;39;14021;-59
2021/05/30 07:08:55;;;;;;;;;5.50;5.50;;;;;15.48;62.55;99887.31;3608488;39;13927;-59
2021/05/30 07:11:22;;;;;;;;;7.25;5.00;;;;;15.15;62.68;99880.88;3608943;39;13943;-58
2021/05/30 07:13:49;;;;;;;;;4.00;4.00;;;;;14.38;64.03;99883.09;3606338;39;13909;-59
2021/05/30 07:16:17;;;;;;;;;7.50;5.50;;;;;15.14;63.93;99885.41;3604557;39;13959;-59
2021/05/30 07:18:45;;;;;;;;;6.50;3.75;;;;;14.63;64.06;99880.28;3606129;39;13915;-58
2021/05/30 07:21:12;;;;;;;;;7.50;6.00;;;;;14.17;66.00;99890.94;3600936;39;13932;-58
2021/05/30 07:23:39;;;;;;;;;4.00;4.00;;;;;14.58;64.22;99887.03;3607464;39;14096;-58
2021/05/30 07:26:07;;;;;;;;;5.75;5.75;;;;;13.89;65.59;99886.66;3608644;39;13934;-59
2021/05/30 07:28:34;;;;;;;;;4.50;4.00;;;;;15.10;63.74;99889.31;3605274;39;14011;-59
2021/05/30 07:31:02;;;;;;;;;7.50;7.00;;;;;15.43;62.28;99895.81;3605408;39;13963;-59
2021/05/30 07:33:29;;;;;;;;;4.75;4.00;;;;;15.13;62.57;99894.50;3609944;39;13996;-58
2021/05/30 07:35:57;;;;;;;;;4.00;4.00;;;;;15.69;62.57;99885.66;3603218;39;14103;-57
2021/05/30 07:38:25;;;;;;;;;5.50;5.50;;;;;15.00;63.24;99888.31;3604325;39;13912;-58
2021/05/30 07:40:52;;;;;;;;;4.00;4.00;;;;;15.56;62.46;99884.84;3608509;39;13882;-58
2021/05/30 07:43:20;;;;;;;;;9.00;7.00;;;;;16.48;59.01;99896.41;3611919;39;14006;-56
2021/05/30 07:45:47;;;;;;;;;5.00;5.00;;;;;16.18;59.13;99888.97;3608568;39;13904;-59
2021/05/30 07:48:14;;;;;;;;;4.25;4.25;;;;;16.19;58.29;99885.25;3600544;39;13905;-55
2021/05/30 07:51:37;;;;;;;;;5.00;5.00;;;;;16.01;62.44;99893.06;3601751;39;14552;-59
2021/05/30 07:54:04;;;;;;;;;5.75;5.00;;;;;16.49;60.32;99894.56;3606017;39;13894;-59
2021/05/30 07:56:32;;;;;;;;;4.00;3.00;;;;;15.28;61.43;99897.00;3608614;39;13912;-57
2021/05/30 07:58:59;;;;;;;;;6.00;5.25;;;;;14.76;64.28;99899.16;3604520;39;14035;-55
2021/05/30 08:01:26;;;;;;;;;5.00;5.00;;;;;14.59;64.75;99900.44;3601613;39;13879;-56
2021/05/30 08:03:54;;;;;;;;;7.50;5.75;;;;;14.89;64.13;99899.09;3595899;39;14099;-56
2021/05/30 08:06:21;;;;;;;;;8.50;5.50;;;;;15.00;63.36;99898.25;3599219;39;14440;-55
2021/05/30 08:08:48;;;;;;;;;7.50;6.00;;;;;14.85;65.56;99900.28;3600140;39;13940;-57
2021/05/30 08:11:16;;;;;;;;;10.25;7.50;;;;;14.50;65.68;99895.66;3598299;39;14083;-55
2021/05/30 08:15:08;;;;;;;;;11.25;9.00;;;;;15.40;64.19;99898.72;3606449;39;17441;-57
2021/05/30 08:17:37;;;;;;;;;8.00;8.00;;;;;16.00;62.47;99902.13;3603874;39;13974;-54
2021/05/30 08:20:07;;;;;;;;;5.50;5.00;;;;;15.49;61.53;99908.84;3603868;39;13935;-55
2021/05/30 08:22:35;;;;;;;;;7.75;7.25;;;;;15.28;64.34;99907.81;3602093;39;14463;-55
2021/05/30 08:25:05;;;;;;;;;6.00;6.00;;;;;14.87;63.55;99903.75;3598911;39;13918;-53
2021/05/30 08:27:33;;;;;;;;;6.00;6.00;;;;;15.65;60.60;99907.66;3598528;39;13902;-55
2021/05/30 08:30:01;;;;;;;;;4.00;4.00;;;;;14.86;63.12;99907.44;3595175;39;13970;-58
2021/05/30 08:32:28;;;;;;;;;10.00;10.00;;;;;15.61;64.87;99909.72;3594850;39;14163;-58
2021/05/30 08:34:55;;;;;;;;;7.00;5.00;;;;;15.31;64.60;99902.16;3596335;39;14133;-56
2021/05/30 08:37:23;;;;;;;;;4.00;4.00;;;;;14.53;64.92;99914.38;3596488;39;13905;-56
2021/05/30 08:39:51;;;;;;;;;5.00;5.00;;;;;16.63;61.25;99916.81;3596902;39;13932;-57
2021/05/30 08:42:20;;;;;;;;;3.00;3.00;;;;;16.01;61.64;99918.28;3594610;39;13976;-58
2021/05/30 08:44:52;;;;;;;;;9.00;5.25;;;;;16.14;61.42;99906.44;3598023;39;14429;-58
2021/05/30 08:47:24;;;;;;;;;8.00;4.00;;;;;15.29;63.82;99917.66;3596474;39;14030;-59
2021/05/30 08:49:51;;;;;;;;;9.25;7.00;;;;;14.83;65.89;99915.78;3594247;39;13930;-59
2021/05/30 08:52:19;;;;;;;;;8.00;6.75;;;;;14.69;66.44;99922.19;3594418;39;14182;-59
2021/05/30 08:54:47;;;;;;;;;7.00;5.00;;;;;14.80;65.28;99914.16;3596371;39;14117;-58
2021/05/30 08:57:14;;;;;;;;;5.75;5.75;;;;;14.66;65.77;99923.28;3595510;39;14406;-58
2021/05/30 08:59:56;;;;;;;;;5.25;3.50;;;;;15.73;64.31;99918.75;3597959;39;13918;-58
2021/05/30 09:02:25;;;;;;;;;6.00;6.00;;;;;16.52;61.43;99919.56;3595053;39;14131;-58
2021/05/30 09:04:56;;;;;;;;;5.75;5.75;;;;;16.14;62.43;99928.09;3599550;39;14910;-58
2021/05/30 09:08:01;;;;;;;;;7.00;6.00;;;;;16.95;59.15;99923.28;3595809;39;14244;-58
2021/05/30 09:10:29;;;;;;;;;8.25;6.75;;;;;17.24;59.25;99918.94;3557743;40;13996;-58
2021/05/30 09:13:17;;;;;;;;;7.75;6.00;;;;;16.81;59.55;99916.31;3565441;40;13969;-58
2021/05/30 09:18:22;;;;;;;;;5.00;5.00;;;;;18.49;56.99;99911.59;3598146;39;12842;-57
2021/05/30 09:20:57;;;;;;;;;7.50;6.00;;;;;17.71;58.05;99905.81;3594621;39;12999;-55
2021/05/30 09:23:42;;;;;;;;;7.25;6.75;;;;;18.45;56.66;99904.69;3596162;39;12606;-57
2021/05/30 09:26:22;;;;;;;;;7.25;5.50;;;;;17.90;56.09;99909.66;3590287;39;12375;-58
2021/05/30 09:29:09;;;;;;;;;7.25;6.00;;;;;17.77;57.85;99916.16;3592150;39;12088;-58
2021/05/30 09:32:01;;;;;;;;;9.00;7.75;;;;;18.10;58.24;99908.75;3591378;40;12781;-58
2021/05/30 09:34:41;;;;;;;;;8.25;7.75;;;;;18.08;57.97;99899.00;3594240;40;12841;-59
2021/05/30 09:37:09;;;;;;;;;3.50;3.50;;;;;17.86;56.89;99902.78;3591563;40;12634;-58
2021/05/30 09:39:42;;;;;;;;;4.00;4.00;;;;;18.55;55.62;99902.00;3591342;40;12751;-58
2021/05/30 09:42:36;;;;;;;;;21.75;9.50;;;;;18.04;53.16;99900.31;3587367;40;12629;-59
2021/05/30 09:45:10;;;;;;;;;5.00;5.00;;;;;17.96;52.55;99914.56;3592523;40;13113;-58
2021/05/30 09:47:38;;;;;;;;;4.75;4.00;;;;;17.14;54.70;99900.88;3592505;40;12911;-56
2021/05/30 09:50:10;;;;;;;;;4.50;4.50;;;;;18.03;54.17;99902.13;3590486;40;12483;-56
2021/05/30 09:52:44;;;;;;;;;5.25;5.25;;;;;17.57;54.63;99900.75;3588109;40;12641;-58
2021/05/30 09:55:19;;;;;;;;;5.00;5.00;;;;;17.12;53.10;99895.59;3587566;40;13057;-57
2021/05/30 09:58:15;;;;;;;;;3.00;3.00;;;;;17.03;53.19;99893.66;3585909;40;12766;-57
2021/05/30 10:01:00;;;;;;;;;6.00;5.25;;;;;16.89;54.13;99892.97;3587567;40;12737;-57
2021/05/30 10:03:28;;;;;;;;;5.00;5.00;;;;;17.73;51.37;99890.25;3587308;40;13922;-57
2021/05/30 10:05:56;;;;;;;;;6.25;4.00;;;;;18.85;48.90;99892.91;3590539;40;13897;-58
2021/05/30 10:08:23;;;;;;;;;5.75;4.50;;;;;18.73;49.58;99894.03;3587244;40;13324;-57
2021/05/30 10:10:51;;;;;;;;;4.00;4.00;;;;;19.41;49.80;99892.16;3587926;40;13176;-59
2021/05/30 10:13:19;;;;;;;;;3.25;3.25;;;;;19.99;49.42;99890.31;3592107;40;11967;-56
2021/05/30 10:15:46;;;;;;;;;5.00;4.00;;;;;19.53;48.59;99890.97;3587000;40;11997;-58
2021/05/30 10:18:46;;;;;;;;;3.25;3.00;;;;;19.78;48.65;99896.84;3587208;40;11626;-58
2021/05/30 10:21:18;;;;;;;;;5.00;4.00;;;;;18.91;50.54;99892.34;3585741;39;11133;-58
2021/05/30 10:23:51;;;;;;;;;5.00;4.00;;;;;19.24;49.55;99888.31;3587850;40;11530;-57
2021/05/30 10:26:21;;;;;;;;;3.75;3.75;;;;;19.51;47.65;99887.56;3586528;40;11110;-57
2021/05/30 10:28:58;;;;;;;;;4.50;4.50;;;;;19.52;46.39;99888.41;3588496;40;11156;-56
2021/05/30 10:31:29;;;;;;;;;5.00;4.00;;;;;18.56;49.00;99898.28;3587523;40;11295;-56
2021/05/30 10:34:22;;;;;;;;;4.75;4.00;;;;;17.99;51.19;99892.56;3587196;40;11999;-56
2021/05/30 10:36:59;;;;;;;;;4.00;4.00;;;;;18.70;49.10;99892.44;3587117;40;11866;-57
2021/05/30 10:39:30;;;;;;;;;4.50;4.50;;;;;20.02;47.02;99900.91;3590509;40;12201;-57
2021/05/30 10:42:18;;;;;;;;;7.50;4.75;;;;;19.78;45.83;99898.69;3590200;40;11977;-57
2021/05/30 10:44:53;;;;;;;;;4.00;4.00;;;;;19.19;46.01;99895.19;3587109;40;11630;-54
2021/05/30 10:47:40;;;;;;;;;5.00;3.00;;;;;18.88;47.51;99894.47;3587180;40;11285;-56
2021/05/30 10:50:20;;;;;;;;;5.00;3.00;;;;;20.15;44.97;99895.97;3587961;40;11145;-54
2021/05/30 10:52:53;;;;;;;;;8.00;5.00;;;;;20.12;45.70;99896.28;3588612;40;10998;-57
2021/05/30 10:55:28;;;;;;;;;6.50;3.50;;;;;20.01;43.94;99901.91;3587237;40;11027;-56
2021/05/30 10:57:57;;;;;;;;;6.00;4.00;;;;;20.56;44.28;99893.75;3586868;40;10811;-55
2021/05/30 11:00:24;;;;;;;;;5.00;4.50;;;;;20.17;45.50;99888.50;3587262;40;11300;-54
2021/05/30 11:03:07;;;;;;;;;4.50;3.50;;;;;17.99;48.29;99887.97;3589747;40;10590;-55
2021/05/30 11:05:44;;;;;;;;;5.75;4.00;;;;;18.76;48.51;99880.16;3587188;40;11045;-54
2021/05/30 11:08:52;;;;;;;;;4.00;3.50;;;;;18.43;48.60;99885.81;3591863;40;11422;-55
2021/05/30 11:11:24;;;;;;;;;4.00;4.00;;;;;18.70;48.32;99880.72;3577115;40;11598;-56
2021/05/30 11:14:14;;;;;;;;;5.00;5.00;;;;;18.35;49.36;99877.50;3589458;40;12374;-55
2021/05/30 11:16:47;;;;;;;;;1.75;1.50;;;;;19.49;46.40;99877.81;3590908;40;12305;-56
2021/05/30 11:19:17;;;;;;;;;4.00;2.75;;;;;18.08;48.33;99869.97;3587352;40;12027;-55
2021/05/30 11:21:48;;;;;;;;;3.75;3.25;;;;;18.81;48.26;99880.59;3587968;40;11669;-54
2021/05/30 11:24:20;;;;;;;;;3.00;3.00;;;;;19.21;44.98;99879.56;3586787;40;12268;-52
2021/05/30 11:27:05;;;;;;;;;7.75;4.00;;;;;19.62;45.39;99882.94;3588817;40;11570;-54
2021/05/30 11:29:33;;;;;;;;;3.75;3.75;;;;;19.59;45.07;99877.75;3589802;40;12061;-57
2021/05/30 11:32:02;;;;;;;;;5.00;4.50;;;;;19.98;45.50;99878.53;3592927;40;11718;-53
2021/05/30 11:34:32;;;;;;;;;4.00;2.25;;;;;20.38;44.55;99885.50;3593407;40;11590;-52
2021/05/30 11:37:10;;;;;;;;;4.00;4.00;;;;;18.72;43.49;99873.25;3587136;40;11370;-53
2021/05/30 11:39:40;;;;;;;;;3.25;3.25;;;;;18.23;46.44;99875.03;3587790;40;11327;-55
2021/05/30 11:42:08;;;;;;;;;3.00;3.00;;;;;19.15;46.87;99878.31;3587927;40;11865;-53
2021/05/30 11:44:36;;;;;;;;;3.00;3.00;;;;;18.63;46.63;99864.94;3589699;40;11932;-55
2021/05/30 11:47:08;;;;;;;;;4.50;4.25;;;;;18.08;47.32;99878.13;3590078;40;11823;-49
2021/05/30 11:49:41;;;;;;;;;7.00;4.00;;;;;17.98;47.97;99874.50;3586855;40;12313;-54
2021/05/30 11:52:16;;;;;;;;;6.00;5.00;;;;;17.89;48.79;99865.34;3590526;40;12186;-53
2021/05/30 11:54:46;;;;;;;;;4.00;4.00;;;;;17.62;50.27;99874.06;3586973;40;13149;-54
2021/05/30 11:57:20;;;;;;;;;6.00;3.00;;;;;18.07;49.97;99873.69;3586821;40;13126;-50
2021/05/30 11:59:57;;;;;;;;;3.25;3.25;;;;;17.29;49.37;99875.13;3587036;40;12862;-54
2021/05/30 12:02:32;;;;;;;;;4.50;4.50;;;;;17.69;48.88;99877.97;3590116;40;13222;-54
2021/05/30 12:05:15;;;;;;;;;6.00;6.00;;;;;18.10;48.33;99878.84;3586517;40;13298;-52
2021/05/30 12:07:43;;;;;;;;;5.25;5.25;;;;;19.02;46.34;99878.59;3588330;40;13774;-57
2021/05/30 12:10:15;;;;;;;;;3.00;3.00;;;;;20.51;44.13;99885.13;3586794;40;13016;-53
2021/05/30 12:12:46;;;;;;;;;4.50;4.50;;;;;20.45;43.60;99885.75;3584315;40;12523;-54
2021/05/30 12:15:17;;;;;;;;;5.00;4.25;;;;;19.69;44.53;99881.34;3587985;40;11957;-56
2021/05/30 12:18:06;;;;;;;;;3.75;3.75;;;;;20.39;44.63;99885.34;3586746;40;11817;-54
2021/05/30 12:20:37;;;;;;;;;4.25;4.00;;;;;20.22;46.24;99880.72;3586732;40;11682;-57
2021/05/30 12:23:20;;;;;;;;;5.75;4.75;;;;;19.10;47.06;99883.31;3592572;39;11451;-52
2021/05/30 12:25:59;;;;;;;;;4.25;4.25;;;;;18.49;49.78;99884.41;3589179;40;11713;-56
2021/05/30 12:28:36;;;;;;;;;6.50;5.00;;;;;18.29;50.84;99878.03;3586026;40;12068;-54
2021/05/30 12:31:10;;;;;;;;;6.50;6.00;;;;;19.73;46.90;99886.38;3588746;40;12385;-55
2021/05/30 12:34:01;;;;;;;;;3.50;3.00;;;;;19.99;46.87;99891.16;3586818;40;12068;-58
2021/05/30 12:36:40;;;;;;;;;5.00;3.50;;;;;20.11;45.68;99884.47;3587855;40;11834;-56
2021/05/30 12:39:17;;;;;;;;;6.00;4.50;;;;;20.16;45.39;99875.84;3585792;40;11562;-57
2021/05/30 12:42:06;;;;;;;;;5.00;4.00;;;;;18.74;47.22;99882.13;3589720;40;11508;-57
2021/05/30 12:44:51;;;;;;;;;3.75;3.75;;;;;18.15;49.66;99884.75;3585834;40;11535;-56
2021/05/30 12:47:26;;;;;;;;;5.75;5.00;;;;;18.06;49.03;99888.28;3587461;40;12057;-57
2021/05/30 12:50:05;;;;;;;;;6.75;6.00;;;;;17.61;49.92;99882.31;3586347;40;12320;-56
2021/05/30 12:52:53;;;;;;;;;8.00;4.00;;;;;17.50;50.12;99877.84;3588045;40;13034;-56
2021/05/30 12:55:24;;;;;;;;;2.75;2.00;;;;;18.28;45.92;99875.47;3590276;40;12950;-59
2021/05/30 12:57:56;;;;;;;;;4.00;4.00;;;;;18.25;44.50;99873.91;3584992;40;12756;-59
2021/05/30 13:00:32;;;;;;;;;4.00;4.00;;;;;18.85;43.10;99879.28;3590451;39;12704;-58
2021/05/30 13:03:03;;;;;;;;;5.75;4.00;;;;;19.24;43.61;99879.28;3590439;40;12733;-59
2021/05/30 13:05:42;;;;;;;;;3.00;3.00;;;;;18.93;45.54;99874.03;3592525;40;12124;-58
2021/05/30 13:08:18;;;;;;;;;5.50;5.50;;;;;17.85;47.37;99865.75;3589024;40;11969;-59
2021/05/30 13:10:52;;;;;;;;;4.00;4.00;;;;;17.58;48.38;99874.44;3587911;40;12330;-59
2021/05/30 13:13:42;;;;;;;;;6.00;3.25;;;;;17.40;49.08;99871.47;3589534;40;12571;-59
2021/05/30 13:16:11;;;;;;;;;5.75;4.75;;;;;17.26;49.19;99868.13;3591459;40;12623;-59
2021/05/30 13:18:50;;;;;;;;;4.00;4.00;;;;;17.30;48.96;99869.59;3587480;40;12962;-58
2021/05/30 13:21:26;;;;;;;;;4.00;4.00;;;;;17.45;49.01;99872.78;3591822;40;12862;-58
2021/05/30 13:24:12;;;;;;;;;4.50;3.00;;;;;17.36;48.63;99864.63;3588784;40;13648;-57
2021/05/30 13:26:50;;;;;;;;;4.00;3.00;;;;;17.75;49.18;99874.69;3587883;40;12875;-57
2021/05/30 13:29:26;;;;;;;;;3.50;3.00;;;;;17.81;47.47;99869.75;3588216;40;13517;-55
2021/05/30 13:31:54;;;;;;;;;3.00;3.00;;;;;17.54;45.26;99865.72;3588562;40;13012;-58
2021/05/30 13:34:21;;;;;;;;;4.25;4.25;;;;;18.13;44.04;99867.69;3592829;40;12760;-58
2021/05/30 13:36:54;;;;;;;;;4.75;4.00;;;;;19.11;43.10;99870.56;3589814;40;12997;-59
2021/05/30 13:39:21;;;;;;;;;5.50;4.00;;;;;19.20;43.25;99867.84;3591942;40;12751;-57
2021/05/30 13:41:51;;;;;;;;;3.75;3.75;;;;;19.21;42.98;99874.13;3589452;40;13026;-56
2021/05/30 13:44:18;;;;;;;;;3.00;3.00;;;;;19.53;40.22;99874.63;3589014;40;12621;-58
2021/05/30 13:46:45;;;;;;;;;4.75;3.00;;;;;18.34;42.44;99874.91;3591288;40;11973;-58
2021/05/30 13:49:13;;;;;;;;;4.75;4.00;;;;;17.78;43.55;99873.56;3587445;40;11809;-57
2021/05/30 13:51:40;;;;;;;;;5.25;3.00;;;;;18.30;43.49;99868.03;3589628;40;12647;-57
2021/05/30 13:54:07;;;;;;;;;3.25;3.25;;;;;18.75;42.51;99878.47;3589915;40;12489;-58
2021/05/30 13:56:35;;;;;;;;;3.00;3.00;;;;;19.04;40.82;99873.00;3587493;40;12598;-57
2021/05/30 13:59:09;;;;;;;;;4.00;4.00;;;;;19.52;41.11;99869.34;3587700;40;12219;-57
2021/05/30 14:01:36;;;;;;;;;3.50;3.50;;;;;19.14;41.22;99862.97;3590467;40;12207;-57
2021/05/30 14:04:04;;;;;;;;;3.50;3.50;;;;;19.13;42.30;99871.28;3589240;40;11546;-57
2021/05/30 14:06:31;;;;;;;;;5.50;3.75;;;;;18.51;44.27;99868.81;3587404;40;11412;-58
2021/05/30 14:08:58;;;;;;;;;4.00;4.00;;;;;19.24;43.65;99873.84;3589449;40;12186;-57
2021/05/30 14:11:28;;;;;;;;;3.50;3.25;;;;;18.95;43.42;99874.72;3592026;39;12085;-57
2021/05/30 14:14:06;;;;;;;;;4.75;4.25;;;;;18.37;43.89;99872.78;3587524;40;12344;-57
2021/05/30 14:16:35;;;;;;;;;3.25;2.50;;;;;18.38;44.30;99868.22;3587654;40;12105;-56
2021/05/30 14:19:04;;;;;;;;;2.00;2.00;;;;;18.39;45.41;99870.78;3588010;40;12336;-53
2021/05/30 14:21:33;;;;;;;;;4.00;2.25;;;;;18.29;45.83;99877.19;3591940;40;12232;-54
2021/05/30 14:24:01;;;;;;;;;6.75;4.00;;;;;18.30;44.63;99878.91;3587516;40;12057;-56
2021/05/30 14:26:28;;;;;;;;;4.75;3.25;;;;;18.76;45.10;99877.44;3587339;40;12503;-55
2021/05/30 14:28:56;;;;;;;;;5.00;3.75;;;;;18.59;50.93;99879.84;3588809;40;12304;-54
2021/05/30 14:31:24;;;;;;;;;4.75;4.75;;;;;18.42;53.92;99869.63;3593202;40;12421;-58
2021/05/30 14:33:51;;;;;;;;;4.00;4.00;;;;;17.74;55.03;99872.94;3587409;40;12112;-58
2021/05/30 14:36:19;;;;;;;;;5.00;4.50;;;;;18.85;52.85;99890.19;3587412;40;12220;-58
2021/05/30 14:38:46;;;;;;;;;4.50;4.50;;;;;18.11;52.20;99877.84;3587348;40;12382;-58
2021/05/30 14:41:13;;;;;;;;;5.50;4.75;;;;;18.68;52.25;99871.81;3589196;40;12294;-58
2021/05/30 14:43:41;;;;;;;;;2.50;2.50;;;;;18.62;44.65;99871.38;3586938;40;12685;-58
2021/05/30 14:46:08;;;;;;;;;2.00;2.00;;;;;18.26;44.88;99867.47;3587360;40;11919;-59
2021/05/30 14:48:35;;;;;;;;;2.50;2.50;;;;;17.96;43.57;99869.22;3590473;40;12015;-58
2021/05/30 14:51:03;;;;;;;;;2.50;2.00;;;;;17.73;44.94;99865.81;3594726;39;13175;-57
2021/05/30 14:53:30;;;;;;;;;2.25;2.25;;;;;17.51;44.79;99866.00;3587347;40;12690;-58
2021/05/30 14:55:58;;;;;;;;;2.25;1.00;;;;;17.38;45.19;99862.59;3587509;40;12432;-58
2021/05/30 14:58:25;;;;;;;;;2.00;2.00;;;;;17.56;44.76;99852.84;3586911;40;12964;-59
2021/05/30 15:00:52;;;;;;;;;3.00;3.00;;;;;18.22;45.02;99860.59;3590353;40;12861;-59
2021/05/30 15:03:20;;;;;;;;;2.00;2.00;;;;;18.47;44.42;99866.50;3587734;40;12898;-59
2021/05/30 15:06:48;;;;;;;;;3.50;1.50;;;;;18.78;45.07;99879.03;3590432;40;13435;-58
2021/05/30 15:09:16;;;;;;;;;2.50;2.50;;;;;18.59;46.72;99876.25;3589781;40;12628;-57
2021/05/30 15:11:43;;;;;;;;;4.00;3.00;;;;;18.30;46.97;99873.47;3591427;40;12225;-56
2021/05/30 15:14:11;;;;;;;;;3.00;3.00;;;;;17.65;47.11;99871.06;3588009;40;12794;-58
2021/05/30 15:16:38;;;;;;;;;12.75;11.25;;;;;17.88;46.04;99865.50;3587006;40;12612;-58
2021/05/30 15:19:06;;;;;;;;;48.25;38.00;;;;;18.42;45.79;99866.91;3590766;39;14000;-58
2021/05/30 15:21:33;;;;;;;;;9.75;9.75;;;;;18.65;45.82;99879.25;3590102;40;14253;-60
2021/05/30 15:24:05;;;;;;;;;4.00;4.00;;;;;18.91;46.58;99873.31;3589604;40;13463;-59
2021/05/30 15:26:33;;;;;;;;;5.75;4.75;;;;;18.33;47.65;99862.34;3588785;40;12630;-59
2021/05/30 15:29:01;;;;;;;;;3.00;3.00;;;;;19.42;45.88;99872.09;3586999;40;12785;-59
2021/05/30 15:31:28;;;;;;;;;8.25;4.50;;;;;19.22;45.33;99864.94;3587077;40;12413;-58
2021/05/30 15:33:59;;;;;;;;;27.50;24.00;;;;;19.04;47.83;99867.56;3588223;40;12328;-57
2021/05/30 15:36:27;;;;;;;;;3.50;3.50;;;;;19.57;45.08;99867.03;3588838;40;14068;-59
2021/05/30 15:38:55;;;;;;;;;3.75;3.75;;;;;19.41;45.18;99870.38;3592388;40;11839;-57
2021/05/30 15:41:22;;;;;;;;;5.00;5.00;;;;;19.56;45.35;99873.47;3590440;40;11709;-59
2021/05/30 15:43:49;;;;;;;;;5.50;4.75;;;;;18.46;45.63;99868.38;3588141;40;11893;-57
2021/05/30 15:46:17;;;;;;;;;10.00;10.00;;;;;18.77;44.48;99868.28;3586998;39;13419;-59
2021/05/30 15:48:44;;;;;;;;;7.25;7.25;;;;;19.89;44.16;99863.94;3588517;40;12506;-59
2021/05/30 15:51:27;;;;;;;;;7.00;7.00;;;;;19.49;43.29;99872.38;3588921;40;12232;-59
2021/05/30 15:54:04;;;;;;;;;15.25;13.25;;;;;19.12;44.86;99867.69;3586654;40;11941;-58
2021/05/30 15:56:35;;;;;;;;;4.50;4.00;;;;;19.32;44.55;99870.38;3591087;40;13002;-58
2021/05/30 15:59:02;;;;;;;;;3.25;3.00;;;;;18.14;47.36;99874.88;3590292;40;11729;-58
2021/05/30 16:01:31;;;;;;;;;5.25;5.25;;;;;18.31;47.38;99864.31;3590471;40;11811;-53
2021/05/30 16:03:59;;;;;;;;;3.25;3.25;;;;;17.81;48.67;99862.44;3591986;39;12481;-58
2021/05/30 16:06:26;;;;;;;;;2.75;1.00;;;;;17.38;49.43;99868.91;3594198;40;12594;-57
2021/05/30 16:08:54;;;;;;;;;2.00;1.00;;;;;16.88;49.52;99868.72;3587241;40;12682;-56
2021/05/30 16:11:21;;;;;;;;;5.00;5.00;;;;;16.81;49.71;99873.78;3586687;40;12322;-58
2021/05/30 16:13:48;;;;;;;;;1.00;0.50;;;;;16.81;50.17;99873.78;3587648;40;13312;-58
2021/05/30 16:16:16;;;;;;;;;2.00;2.00;;;;;16.87;48.49;99875.97;3593993;40;12860;-58
2021/05/30 16:18:43;;;;;;;;;1.50;1.00;;;;;16.67;48.33;99883.06;3590111;40;13200;-53
2021/05/30 16:21:11;;;;;;;;;2.00;2.00;;;;;17.05;49.08;99881.69;3591442;40;12610;-56
2021/05/30 16:23:38;;;;;;;;;4.75;4.25;;;;;16.82;51.39;99883.63;3586618;40;13462;-56
2021/05/30 16:26:05;;;;;;;;;6.75;4.50;;;;;16.75;52.88;99884.25;3589303;39;14425;-58
2021/05/30 16:28:33;;;;;;;;;23.00;16.25;;;;;16.64;53.08;99882.44;3588308;39;13941;-55
2021/05/30 16:31:01;;;;;;;;;59.00;47.00;;;;;16.63;52.15;99889.69;3591638;40;14121;-57
2021/05/30 16:33:29;;;;;;;;;69.75;53.25;;;;;16.78;53.37;99894.88;3587334;40;14069;-58
2021/05/30 16:35:56;;;;;;;;;83.00;67.67;;;;;17.02;52.68;99898.22;3592319;39;14192;-57
2021/05/30 16:38:24;;;;;;;;;54.25;44.25;;;;;16.63;54.04;99899.69;3586565;40;10543;-58
2021/05/30 16:40:51;;;;;;;;;30.75;28.00;;;;;16.66;54.42;99900.28;3591168;40;14065;-58
2021/05/30 16:43:20;;;;;;;;;28.50;24.00;;;;;16.62;55.91;99900.69;3591721;40;14169;-58
2021/05/30 16:45:48;;;;;;;;;55.25;45.25;;;;;16.26;55.54;99900.03;3591463;40;14069;-58
2021/05/30 16:48:15;;;;;;;;;50.00;37.75;;;;;16.63;56.21;99902.41;3590103;40;14051;-59
2021/05/30 16:50:43;;;;;;;;;40.00;32.25;;;;;16.45;56.11;99910.22;3587094;40;14045;-59
2021/05/30 16:53:11;;;;;;;;;28.00;25.50;;;;;16.27;57.44;99912.56;3589455;40;14308;-59
2021/05/30 16:55:39;;;;;;;;;25.50;21.75;;;;;16.41;57.52;99912.31;3587704;40;14011;-56
2021/05/30 16:58:07;;;;;;;;;7.75;5.00;;;;;16.05;59.09;99918.03;3589537;40;14051;-57
2021/05/30 17:00:38;;;;;;;;;16.25;10.75;;;;;16.07;58.03;99925.03;3589380;40;13902;-56
2021/05/30 17:03:06;;;;;;;;;9.25;6.00;;;;;16.11;58.20;99922.94;3587745;40;13929;-55
2021/05/30 17:05:34;;;;;;;;;4.25;4.00;;;;;15.98;59.91;99923.06;3593216;40;14663;-58
2021/05/30 17:08:02;;;;;;;;;4.75;4.00;;;;;15.64;61.41;99919.44;3587739;40;13939;-57
2021/05/30 17:10:29;;;;;;;;;2.50;2.50;;;;;15.52;62.13;99921.28;3588386;40;13976;-57
2021/05/30 17:12:57;;;;;;;;;4.00;3.00;;;;;15.59;63.83;99917.13;3589730;40;13907;-53
2021/05/30 17:15:38;;;;;;;;;1.75;1.75;;;;;15.48;63.34;99909.84;3587315;40;13913;-57
2021/05/30 17:18:07;;;;;;;;;2.00;2.00;;;;;15.48;63.49;99909.84;3588766;40;14143;-57
2021/05/30 17:20:35;;;;;;;;;2.00;2.00;;;;;15.49;62.97;99900.72;3587984;40;14008;-56
2021/05/30 17:23:03;;;;;;;;;4.00;4.00;;;;;15.42;63.86;99921.13;3593228;40;13945;-58
2021/05/30 17:25:30;;;;;;;;;5.75;3.00;;;;;15.20;62.63;99919.25;3587999;40;13940;-57
2021/05/30 17:27:58;;;;;;;;;5.25;2.50;;;;;15.32;64.49;99922.81;3590018;39;14101;-57
2021/05/30 17:30:26;;;;;;;;;3.50;3.50;;;;;15.33;63.30;99921.84;3592583;40;13929;-58
2021/05/30 17:32:53;;;;;;;;;3.00;3.00;;;;;15.26;63.84;99931.41;3590972;40;13916;-54
2021/05/30 17:35:21;;;;;;;;;4.50;2.00;;;;;15.24;62.14;99927.97;3588688;40;14442;-52
2021/05/30 17:37:48;;;;;;;;;4.00;4.00;;;;;15.21;61.95;99923.66;3588563;40;13950;-53
2021/05/30 17:40:16;;;;;;;;;4.25;3.00;;;;;15.25;63.89;99914.34;3589829;39;14601;-55
2021/05/30 17:42:43;;;;;;;;;3.25;1.50;;;;;15.19;64.57;99925.59;3589518;39;13968;-54
2021/05/30 17:45:12;;;;;;;;;3.00;3.00;;;;;15.04;63.41;99922.25;3587884;40;14052;-53
2021/05/30 17:47:40;;;;;;;;;4.00;4.00;;;;;14.99;65.79;99919.03;3587343;40;14135;-54
2021/05/30 17:50:09;;;;;;;;;3.00;3.00;;;;;14.83;67.47;99923.88;3588982;40;14615;-56
2021/05/30 17:52:37;;;;;;;;;3.25;3.25;;;;;14.71;68.58;99925.66;3590138;39;13902;-54
2021/05/30 17:55:06;;;;;;;;;5.50;3.00;;;;;14.81;69.28;99931.25;3589188;40;14140;-55
2021/05/30 17:57:34;;;;;;;;;4.00;4.00;;;;;14.76;69.05;99928.03;3587489;40;13951;-52
2021/05/30 18:00:04;;;;;;;;;4.00;3.00;;;;;14.55;71.39;99925.94;3591690;40;13984;-53
2021/05/30 18:05:59;;;;;;;;;4.00;4.00;;;;;14.45;71.99;99935.66;3577443;39;17486;-56
2021/05/30 18:08:27;;;;;;;;;4.25;3.25;;;;;14.36;75.92;99936.38;3573062;40;13957;-50
2021/05/30 18:11:03;;;;;;;;;4.00;4.00;;;;;13.97;77.72;99936.44;3574262;40;14140;-49
2021/05/30 18:13:38;;;;;;;;;7.25;4.00;;;;;14.07;79.14;99936.63;3569108;40;14152;-52
2021/05/30 18:16:06;;;;;;;;;7.50;6.00;;;;;14.62;76.68;99935.31;3564855;40;14046;-53
2021/05/30 18:18:35;;;;;;;;;8.75;5.75;;;;;14.48;80.01;99941.72;3567100;40;14027;-53
2021/05/30 18:21:04;;;;;;;;;8.25;6.00;;;;;13.95;82.49;99940.22;3568995;40;14045;-51
2021/05/30 18:23:32;;;;;;;;;6.00;6.00;;;;;14.54;77.93;99945.84;3564791;40;14784;-50
2021/05/30 18:26:00;;;;;;;;;5.00;5.00;;;;;14.63;78.45;99942.44;3564489;40;14041;-51
2021/05/30 18:28:28;;;;;;;;;8.00;6.75;;;;;14.55;80.96;99947.56;3564585;40;14050;-50
2021/05/30 18:30:56;;;;;;;;;3.75;3.75;;;;;14.21;79.38;99952.69;3565558;40;14222;-52
2021/05/30 18:33:26;;;;;;;;;7.50;4.50;;;;;14.37;73.80;99954.28;3564941;40;14050;-50
2021/05/30 18:35:54;;;;;;;;;3.75;3.00;;;;;14.51;74.09;99959.56;3564178;40;14073;-52
2021/05/30 18:38:22;;;;;;;;;9.25;5.00;;;;;14.33;76.42;99963.59;3565991;40;14061;-53
2021/05/30 18:40:53;;;;;;;;;1.50;1.50;;;;;14.34;75.83;99965.31;3569703;40;14076;-49
2021/05/30 18:43:25;;;;;;;;;4.00;4.00;;;;;14.38;77.02;99972.25;3565217;40;14042;-51
2021/05/30 18:45:54;;;;;;;;;7.50;5.00;;;;;14.23;79.97;99971.50;3564593;40;16094;-49
2021/05/30 18:48:23;;;;;;;;;5.50;5.50;;;;;13.94;80.48;99985.25;3567547;40;14091;-49